createdAt,value
2019-01-20T00:09:17.899Z,93610.12
2019-01-20T00:24:51.351Z,93615.52
2019-01-20T00:40:26.583Z,93618.02
2019-01-20T00:55:59.163Z,93627.52
2019-01-20T01:11:32.248Z,93616.05
2019-01-20T01:27:05.289Z,93601.73
2019-01-20T01:42:38.281Z,93584.46
2019-01-20T01:58:11.428Z,93570.45
2019-01-20T02:13:44.565Z,93561.73
2019-01-20T02:29:17.687Z,93555.45
2019-01-20T02:44:51.130Z,93550.58
2019-01-20T03:00:28.033Z,93546.56
2019-01-20T03:16:01.588Z,93523.43
2019-01-20T03:31:34.579Z,93513.18
2019-01-20T03:47:07.448Z,93519.30
2019-01-20T04:02:40.586Z,93497.95
2019-01-20T04:18:13.594Z,93497.91
2019-01-20T04:33:46.509Z,93498.87
2019-01-20T04:49:19.236Z,93478.11
2019-01-20T05:04:52.247Z,93464.14
2019-01-20T05:20:26.220Z,93462.52
2019-01-20T05:35:59.487Z,93456.77
2019-01-20T05:51:32.427Z,93457.18
2019-01-20T06:07:05.448Z,93465.94
2019-01-20T06:22:38.469Z,93464.86
2019-01-20T06:38:11.508Z,93462.26
2019-01-20T06:53:44.537Z,93463.92
2019-01-20T07:09:17.590Z,93472.34
2019-01-20T07:24:50.823Z,93476.36
2019-01-20T07:40:25.113Z,93487.25
2019-01-20T07:55:58.346Z,93474.46
2019-01-20T08:11:31.739Z,93478.75
2019-01-20T08:27:04.482Z,93485.33
2019-01-20T08:42:37.758Z,93482.38
2019-01-20T08:58:11.243Z,93469.55
2019-01-20T09:13:45.206Z,93475.72
2019-01-20T09:29:18.492Z,93474.24
2019-01-20T09:44:51.456Z,93445.55
2019-01-20T10:00:29.550Z,93437.58
2019-01-20T10:16:02.706Z,93418.08
2019-01-20T10:31:35.901Z,93396.44
2019-01-20T10:47:08.670Z,93387.69
2019-01-20T11:02:42.108Z,93355.02
2019-01-20T11:18:14.966Z,93353.78
2019-01-20T11:33:47.918Z,93326.67
2019-01-20T11:49:21.298Z,93319.30
2019-01-20T12:04:54.245Z,93298.83
2019-01-20T12:20:29.365Z,93298.92
2019-01-20T12:36:02.637Z,93290.45
2019-01-20T12:51:36.050Z,93299.06
2019-01-20T13:07:09.415Z,93289.84
2019-01-20T13:22:43.179Z,93282.54
2019-01-20T13:38:18.146Z,93277.08
2019-01-20T13:53:51.123Z,93276.75
2019-01-20T14:09:24.179Z,93276.80
2019-01-20T14:24:57.173Z,93276.02
2019-01-20T14:40:35.240Z,93297.03
2019-01-20T14:56:08.431Z,93299.72
2019-01-20T15:11:41.518Z,93301.73
2019-01-20T15:27:14.662Z,93289.92
2019-01-20T15:42:48.113Z,93300.42
2019-01-20T15:58:21.026Z,93305.55
2019-01-20T16:13:54.425Z,93320.28
2019-01-20T16:29:27.308Z,93309.23
2019-01-20T16:45:00.137Z,93240.49
2019-01-20T17:00:35.931Z,93344.67
2019-01-20T17:16:08.770Z,93363.32
2019-01-20T17:31:41.631Z,93360.87
2019-01-20T17:47:14.493Z,93365.36
2019-01-20T18:02:47.497Z,93358.70
2019-01-20T18:18:20.437Z,93369.03
2019-01-20T18:33:53.534Z,93397.92
2019-01-20T18:49:26.477Z,93399.89
2019-01-20T19:04:59.279Z,93410.59
2019-01-20T19:20:34.576Z,93415.83
2019-01-20T19:36:07.582Z,93425.06
2019-01-20T19:51:41.040Z,93441.75
2019-01-20T20:07:14.027Z,93435.78
2019-01-20T20:22:47.497Z,93432.17
2019-01-20T20:38:20.224Z,93433.50
2019-01-20T20:53:53.346Z,93445.53
2019-01-20T21:09:29.176Z,93457.89
2019-01-20T21:25:02.711Z,93472.78
2019-01-20T21:40:36.789Z,93470.36
2019-01-20T21:56:10.235Z,93479.34
2019-01-20T22:11:43.201Z,93497.45
2019-01-20T22:27:16.866Z,93499.92
2019-01-20T22:42:49.597Z,93493.26
2019-01-20T22:58:22.705Z,93484.56
2019-01-20T23:13:55.326Z,93467.56
2019-01-20T23:29:28.600Z,93479.02
2019-01-20T23:45:01.459Z,93470.28
